MDT,Max TemperatureF,Mean TemperatureF,Min TemperatureF,Max Dew PointF,MeanDew PointF,Min DewpointF,Max Humidity, Mean Humidity, Min Humidity, Max Sea Level PressureIn, Mean Sea Level PressureIn, Min Sea Level PressureIn, Max VisibilityMiles, Mean VisibilityMiles, Min VisibilityMiles, Max Wind SpeedMPH, Mean Wind SpeedMPH, Max Gust SpeedMPH,PrecipitationIn, CloudCover, Events, WindDirDegrees
2014-3-1,50,41,31,36,28,24,89,66,42,29.84,29.78,29.70,10,10,10,39,15,51,T,3,Rain,195
2014-3-2,49,37,25,32,28,17,100,67,34,30.15,29.91,29.78,10,6,0,21,6,24,0.21,6,Fog-Snow,301
2014-3-3,50,36,22,26,22,18,92,61,29,30.18,30.10,30.01,10,10,10,9,4,15,0.00,0,,123
2014-3-4,47,34,21,32,25,18,89,63,37,30.09,29.96,29.84,10,10,10,18,7,22,T,4,Rain,155
2014-3-5,53,39,24,30,19,7,92,54,16,30.22,30.08,29.93,10,10,10,20,7,25,0.00,2,,360
2014-3-6,54,36,18,24,19,11,84,52,19,30.23,30.05,29.84,10,10,10,22,5,27,0.00,1,,145
2014-3-7,54,38,22,30,25,17,100,64,27,30.06,29.91,29.67,10,6,0,30,10,39,0.19,6,Fog-Snow-Thunderstorm,289
2014-3-8,43,32,21,25,21,15,92,63,33,30.44,30.25,30.02,10,10,10,14,6,20,0.00,5,,257
2014-3-9,55,35,15,25,20,12,92,58,24,30.49,30.35,30.21,10,10,10,9,3,11,0.00,0,,267
2014-3-10,63,42,21,25,18,8,88,51,14,30.25,30.02,29.75,10,10,10,29,6,42,0.00,0,,216
2014-3-11,49,36,22,22,12,1,63,39,15,30.20,29.84,29.60,10,10,10,32,15,38,0.00,3,,331
2014-3-12,46,30,14,14,10,-3,88,51,14,30.42,30.31,30.22,10,10,10,12,3,15,0.00,0,,92
2014-3-13,57,34,12,25,15,10,84,48,13,30.30,30.09,29.90,10,10,10,16,3,21,0.00,3,,1
2014-3-14,51,37,23,30,25,20,92,62,31,30.05,29.99,29.91,10,10,10,21,6,24,T,4,,176
2014-3-15,46,33,20,27,16,3,96,57,18,30.26,30.05,29.96,10,8,0,30,12,40,0.00,5,Fog,340
2014-3-16,57,35,13,12,8,6,67,41,14,30.38,30.21,30.06,10,10,10,22,9,30,0.00,0,,338
2014-3-17,60,40,19,20,10,2,77,44,10,30.05,29.67,29.39,10,8,2,38,14,51,0.00,1,,238
2014-3-18,44,33,21,15,6,1,68,43,18,30.03,29.73,29.38,10,10,9,26,12,36,0.00,2,,342
2014-3-19,47,30,13,12,7,0,80,49,17,30.26,30.16,30.04,10,10,10,15,5,20,0.00,2,,204
2014-3-20,62,36,9,8,1,-18,73,39,4,30.26,30.08,29.90,10,10,10,24,8,32,0.00,0,,214
2014-3-21,59,38,16,18,5,-2,61,36,10,30.02,29.92,29.82,10,10,10,25,9,31,0.00,0,,196
2014-3-22,56,38,20,23,15,9,74,45,15,30.16,29.96,29.85,10,10,8,31,13,40,0.00,1,,205
2014-3-23,54,36,17,19,12,5,80,47,14,30.28,30.13,30.01,10,10,10,26,7,31,0.00,2,,244
2014-3-24,58,36,14,13,3,-6,67,38,8,30.17,30.12,30.04,10,10,10,28,10,34,0.00,0,,355
2014-3-25,64,40,15,15,5,-4,61,34,7,30.26,30.03,29.81,10,10,10,23,8,33,0.00,0,,221
2014-3-26,57,43,28,30,24,16,92,58,24,29.80,29.61,29.45,10,8,0,51,16,60,T,4,Rain,221
2014-3-27,51,38,25,25,18,7,75,47,18,29.85,29.67,29.44,10,10,2,31,12,41,0.00,3,,256
2014-3-28,54,37,19,18,8,-5,74,42,9,30.25,30.02,29.80,10,10,10,24,11,32,0.00,1,,332
2014-3-29,62,38,13,11,6,2,73,41,9,30.33,30.17,30.01,10,10,10,25,9,35,0.00,0,,210
2014-3-30,62,43,23,16,9,1,50,31,11,30.02,29.79,29.57,10,7,0,46,18,67,0.00,3,,220
2014-3-31,54,38,21,9,1,-10,45,27,9,29.98,29.87,29.68,10,10,10,26,11,34,0.00,0,,262